sensor_id;sensor_type;location;lat;lon;timestamp;temperature;humidity
13684;DHT22;6914;53.552;9.908;2023-02-01T00:00:26;4.70;99.90
13684;DHT22;6914;53.552;9.908;2023-02-01T00:02:53;4.70;99.90
13684;DHT22;6914;53.552;9.908;2023-02-01T00:05:20;4.00;99.90
13684;DHT22;6914;53.552;9.908;2023-02-01T00:07:47;4.80;99.90
13684;DHT22;6914;53.552;9.908;2023-02-01T00:10:14;4.10;99.90
13684;DHT22;6914;53.552;9.908;2023-02-01T00:12:41;4.90;99.90
13684;DHT22;6914;53.552;9.908;2023-02-01T00:15:10;4.80;99.90
13684;DHT22;6914;53.552;9.908;2023-02-01T00:17:37;4.90;99.90
13684;DHT22;6914;53.552;9.908;2023-02-01T00:20:05;4.90;99.90
13684;DHT22;6914;53.552;9.908;2023-02-01T00:22:32;5.00;99.90
13684;DHT22;6914;53.552;9.908;2023-02-01T00:24:59;6.10;99.90
13684;DHT22;6914;53.552;9.908;2023-02-01T00:27:26;5.10;99.90
13684;DHT22;6914;53.552;9.908;2023-02-01T00:29:54;5.00;99.90
13684;DHT22;6914;53.552;9.908;2023-02-01T00:32:22;5.10;99.90
13684;DHT22;6914;53.552;9.908;2023-02-01T00:34:49;5.00;99.90
13684;DHT22;6914;53.552;9.908;2023-02-01T00:37:16;5.70;99.90
13684;DHT22;6914;53.552;9.908;2023-02-01T00:39:43;5.10;99.90
13684;DHT22;6914;53.552;9.908;2023-02-01T00:42:09;5.10;99.90
13684;DHT22;6914;53.552;9.908;2023-02-01T00:44:40;5.10;99.90
13684;DHT22;6914;53.552;9.908;2023-02-01T00:47:06;5.10;99.90
13684;DHT22;6914;53.552;9.908;2023-02-01T00:49:34;5.10;99.90
13684;DHT22;6914;53.552;9.908;2023-02-01T00:52:02;4.70;99.90
13684;DHT22;6914;53.552;9.908;2023-02-01T00:54:29;5.20;99.90
13684;DHT22;6914;53.552;9.908;2023-02-01T00:56:55;5.30;99.90
13684;DHT22;6914;53.552;9.908;2023-02-01T00:59:22;5.20;99.90
13684;DHT22;6914;53.552;9.908;2023-02-01T01:01:49;5.20;99.90
13684;DHT22;6914;53.552;9.908;2023-02-01T01:04:15;5.20;99.90
13684;DHT22;6914;53.552;9.908;2023-02-01T01:06:44;5.20;99.90
13684;DHT22;6914;53.552;9.908;2023-02-01T01:09:10;5.30;99.90
13684;DHT22;6914;53.552;9.908;2023-02-01T01:11:38;5.30;99.90
13684;DHT22;6914;53.552;9.908;2023-02-01T01:14:06;5.30;99.90
13684;DHT22;6914;53.552;9.908;2023-02-01T01:16:37;5.30;99.90
13684;DHT22;6914;53.552;9.908;2023-02-01T01:19:04;5.20;99.90
13684;DHT22;6914;53.552;9.908;2023-02-01T01:21:31;5.30;99.90
13684;DHT22;6914;53.552;9.908;2023-02-01T01:23:59;5.50;99.90
13684;DHT22;6914;53.552;9.908;2023-02-01T01:26:27;5.30;99.90
13684;DHT22;6914;53.552;9.908;2023-02-01T01:28:55;5.30;99.90
13684;DHT22;6914;53.552;9.908;2023-02-01T01:31:23;5.30;99.90
13684;DHT22;6914;53.552;9.908;2023-02-01T01:33:51;5.30;99.90
13684;DHT22;6914;53.552;9.908;2023-02-01T01:36:18;5.40;99.90
13684;DHT22;6914;53.552;9.908;2023-02-01T01:38:46;5.40;99.90
13684;DHT22;6914;53.552;9.908;2023-02-01T01:41:16;5.30;99.90
13684;DHT22;6914;53.552;9.908;2023-02-01T01:43:49;5.40;99.90
13684;DHT22;6914;53.552;9.908;2023-02-01T01:46:18;5.50;99.90
13684;DHT22;6914;53.552;9.908;2023-02-01T01:48:46;5.40;99.90
13684;DHT22;6914;53.552;9.908;2023-02-01T01:51:17;5.60;99.90
13684;DHT22;6914;53.552;9.908;2023-02-01T01:53:58;5.50;99.90
13684;DHT22;6914;53.552;9.908;2023-02-01T01:56:29;5.00;99.90
13684;DHT22;6914;53.552;9.908;2023-02-01T01:58:57;5.40;99.90
13684;DHT22;6914;53.552;9.908;2023-02-01T02:01:25;5.50;99.90
13684;DHT22;6914;53.552;9.908;2023-02-01T02:03:52;5.40;99.90
13684;DHT22;6914;53.552;9.908;2023-02-01T02:06:28;5.40;99.90
13684;DHT22;6914;53.552;9.908;2023-02-01T02:08:57;5.40;99.90
13684;DHT22;6914;53.552;9.908;2023-02-01T02:11:24;5.60;99.90
13684;DHT22;6914;53.552;9.908;2023-02-01T02:13:54;5.40;99.90
13684;DHT22;6914;53.552;9.908;2023-02-01T02:22:19;5.70;99.90
13684;DHT22;6914;53.552;9.908;2023-02-01T02:25:15;5.50;99.90
13684;DHT22;6914;53.552;9.908;2023-02-01T02:27:47;5.30;99.90
13684;DHT22;6914;53.552;9.908;2023-02-01T02:30:49;5.30;99.90
13684;DHT22;6914;53.552;9.908;2023-02-01T02:33:48;5.30;99.90
13684;DHT22;6914;53.552;9.908;2023-02-01T02:36:30;5.20;99.90
13684;DHT22;6914;53.552;9.908;2023-02-01T02:39:04;5.20;99.90
13684;DHT22;6914;53.552;9.908;2023-02-01T02:41:43;6.40;99.90
13684;DHT22;6914;53.552;9.908;2023-02-01T02:44:35;5.20;99.90
13684;DHT22;6914;53.552;9.908;2023-02-01T02:47:25;5.10;99.90
13684;DHT22;6914;53.552;9.908;2023-02-01T02:50:05;5.20;99.90
13684;DHT22;6914;53.552;9.908;2023-02-01T02:52:57;5.00;99.90
13684;DHT22;6914;53.552;9.908;2023-02-01T02:55:44;5.10;99.90
13684;DHT22;6914;53.552;9.908;2023-02-01T02:58:12;5.00;99.90
13684;DHT22;6914;53.552;9.908;2023-02-01T03:00:57;4.80;99.90
13684;DHT22;6914;53.552;9.908;2023-02-01T03:03:43;5.30;99.90
13684;DHT22;6914;53.552;9.908;2023-02-01T03:06:32;5.00;99.90
13684;DHT22;6914;53.552;9.908;2023-02-01T03:09:04;5.00;99.90
13684;DHT22;6914;53.552;9.908;2023-02-01T03:11:32;5.10;99.90
13684;DHT22;6914;53.552;9.908;2023-02-01T03:14:14;4.90;99.90
13684;DHT22;6914;53.552;9.908;2023-02-01T03:16:47;4.90;99.90
13684;DHT22;6914;53.552;9.908;2023-02-01T03:19:21;5.00;99.90
13684;DHT22;6914;53.552;9.908;2023-02-01T03:21:51;5.00;99.90
13684;DHT22;6914;53.552;9.908;2023-02-01T03:24:23;4.90;99.90
13684;DHT22;6914;53.552;9.908;2023-02-01T03:27:02;4.80;99.90
13684;DHT22;6914;53.552;9.908;2023-02-01T03:29:37;4.80;99.90
13684;DHT22;6914;53.552;9.908;2023-02-01T03:32:04;4.80;99.90
13684;DHT22;6914;53.552;9.908;2023-02-01T03:34:32;4.70;99.90
13684;DHT22;6914;53.552;9.908;2023-02-01T03:37:01;4.60;99.90
13684;DHT22;6914;53.552;9.908;2023-02-01T03:39:32;4.40;99.90
13684;DHT22;6914;53.552;9.908;2023-02-01T03:42:03;4.50;99.90
13684;DHT22;6914;53.552;9.908;2023-02-01T03:44:34;4.40;99.90
13684;DHT22;6914;53.552;9.908;2023-02-01T03:47:06;4.00;99.90
13684;DHT22;6914;53.552;9.908;2023-02-01T03:49:37;5.60;99.90
13684;DHT22;6914;53.552;9.908;2023-02-01T03:52:10;4.30;99.90
13684;DHT22;6914;53.552;9.908;2023-02-01T03:54:38;4.30;99.90
13684;DHT22;6914;53.552;9.908;2023-02-01T03:57:09;4.30;99.90
13684;DHT22;6914;53.552;9.908;2023-02-01T03:59:39;4.70;99.90
13684;DHT22;6914;53.552;9.908;2023-02-01T04:02:06;4.30;99.90
13684;DHT22;6914;53.552;9.908;2023-02-01T04:04:34;4.40;99.90
13684;DHT22;6914;53.552;9.908;2023-02-01T04:07:01;5.70;99.90
13684;DHT22;6914;53.552;9.908;2023-02-01T04:09:29;4.50;99.90
13684;DHT22;6914;53.552;9.908;2023-02-01T04:11:56;4.70;99.90
13684;DHT22;6914;53.552;9.908;2023-02-01T04:14:23;4.60;99.90
13684;DHT22;6914;53.552;9.908;2023-02-01T04:16:50;4.50;99.90
13684;DHT22;6914;53.552;9.908;2023-02-01T04:19:17;4.40;99.90
13684;DHT22;6914;53.552;9.908;2023-02-01T04:21:43;4.50;99.90
13684;DHT22;6914;53.552;9.908;2023-02-01T04:24:10;4.50;99.90
13684;DHT22;6914;53.552;9.908;2023-02-01T04:26:39;4.60;99.90
13684;DHT22;6914;53.552;9.908;2023-02-01T04:29:05;4.50;99.90
13684;DHT22;6914;53.552;9.908;2023-02-01T04:31:32;4.50;99.90
13684;DHT22;6914;53.552;9.908;2023-02-01T04:34:01;4.50;99.90
13684;DHT22;6914;53.552;9.908;2023-02-01T04:36:27;4.50;99.90
13684;DHT22;6914;53.552;9.908;2023-02-01T04:38:54;3.90;99.90
13684;DHT22;6914;53.552;9.908;2023-02-01T04:41:21;4.50;99.90
13684;DHT22;6914;53.552;9.908;2023-02-01T04:43:50;4.40;99.90
13684;DHT22;6914;53.552;9.908;2023-02-01T04:46:17;5.30;99.90
13684;DHT22;6914;53.552;9.908;2023-02-01T04:48:44;4.40;99.90
13684;DHT22;6914;53.552;9.908;2023-02-01T04:51:11;4.00;99.90
13684;DHT22;6914;53.552;9.908;2023-02-01T04:53:38;4.40;99.90
13684;DHT22;6914;53.552;9.908;2023-02-01T04:56:05;4.30;99.90
13684;DHT22;6914;53.552;9.908;2023-02-01T04:58:33;4.30;99.90
13684;DHT22;6914;53.552;9.908;2023-02-01T05:01:03;4.30;99.90
13684;DHT22;6914;53.552;9.908;2023-02-01T05:03:30;4.50;99.90
13684;DHT22;6914;53.552;9.908;2023-02-01T05:05:57;4.40;99.90
13684;DHT22;6914;53.552;9.908;2023-02-01T05:08:25;4.20;99.90
13684;DHT22;6914;53.552;9.908;2023-02-01T05:10:52;3.90;99.90
13684;DHT22;6914;53.552;9.908;2023-02-01T05:13:19;3.80;99.90
13684;DHT22;6914;53.552;9.908;2023-02-01T05:16:05;3.70;99.90
13684;DHT22;6914;53.552;9.908;2023-02-01T05:18:32;3.70;99.90
13684;DHT22;6914;53.552;9.908;2023-02-01T05:20:59;3.40;99.90
13684;DHT22;6914;53.552;9.908;2023-02-01T05:23:27;3.20;99.90
13684;DHT22;6914;53.552;9.908;2023-02-01T05:25:58;3.20;99.90
13684;DHT22;6914;53.552;9.908;2023-02-01T05:28:25;3.00;99.90
13684;DHT22;6914;53.552;9.908;2023-02-01T05:30:52;3.30;99.90
13684;DHT22;6914;53.552;9.908;2023-02-01T05:33:20;3.00;99.90
13684;DHT22;6914;53.552;9.908;2023-02-01T05:35:47;3.00;99.90
13684;DHT22;6914;53.552;9.908;2023-02-01T05:38:15;3.00;99.90
13684;DHT22;6914;53.552;9.908;2023-02-01T05:40:43;3.00;99.90
13684;DHT22;6914;53.552;9.908;2023-02-01T05:43:14;2.90;99.90
13684;DHT22;6914;53.552;9.908;2023-02-01T05:45:41;2.90;99.90
13684;DHT22;6914;53.552;9.908;2023-02-01T05:48:08;2.80;99.90
13684;DHT22;6914;53.552;9.908;2023-02-01T05:50:39;2.80;99.90
13684;DHT22;6914;53.552;9.908;2023-02-01T05:53:06;3.10;99.90
13684;DHT22;6914;53.552;9.908;2023-02-01T05:55:33;2.80;99.90
13684;DHT22;6914;53.552;9.908;2023-02-01T05:58:00;2.60;99.90
13684;DHT22;6914;53.552;9.908;2023-02-01T06:00:26;2.70;99.90
13684;DHT22;6914;53.552;9.908;2023-02-01T06:02:53;2.70;99.90
13684;DHT22;6914;53.552;9.908;2023-02-01T06:05:20;2.60;99.90
13684;DHT22;6914;53.552;9.908;2023-02-01T06:07:48;2.70;99.90
13684;DHT22;6914;53.552;9.908;2023-02-01T06:10:16;2.70;99.90
13684;DHT22;6914;53.552;9.908;2023-02-01T06:12:44;3.50;99.90
13684;DHT22;6914;53.552;9.908;2023-02-01T06:15:11;2.80;99.90
13684;DHT22;6914;53.552;9.908;2023-02-01T06:17:38;2.90;99.90
13684;DHT22;6914;53.552;9.908;2023-02-01T06:20:07;1.60;99.90
13684;DHT22;6914;53.552;9.908;2023-02-01T06:22:34;2.90;99.90
13684;DHT22;6914;53.552;9.908;2023-02-01T06:25:03;3.00;99.90
13684;DHT22;6914;53.552;9.908;2023-02-01T06:27:30;2.90;99.90
13684;DHT22;6914;53.552;9.908;2023-02-01T06:29:57;3.10;99.90
13684;DHT22;6914;53.552;9.908;2023-02-01T06:32:24;3.10;99.90
13684;DHT22;6914;53.552;9.908;2023-02-01T06:34:51;3.20;99.90
13684;DHT22;6914;53.552;9.908;2023-02-01T06:37:18;1.10;99.90
13684;DHT22;6914;53.552;9.908;2023-02-01T06:39:45;3.40;99.90
13684;DHT22;6914;53.552;9.908;2023-02-01T06:42:13;3.20;99.90
13684;DHT22;6914;53.552;9.908;2023-02-01T06:44:40;3.30;99.90
13684;DHT22;6914;53.552;9.908;2023-02-01T06:47:07;3.70;99.90
13684;DHT22;6914;53.552;9.908;2023-02-01T06:49:34;3.40;99.90
13684;DHT22;6914;53.552;9.908;2023-02-01T06:52:04;3.40;99.90
13684;DHT22;6914;53.552;9.908;2023-02-01T06:54:30;3.40;99.90
13684;DHT22;6914;53.552;9.908;2023-02-01T06:56:59;3.40;99.90
13684;DHT22;6914;53.552;9.908;2023-02-01T06:59:27;3.40;99.90
13684;DHT22;6914;53.552;9.908;2023-02-01T07:01:54;3.50;99.90
13684;DHT22;6914;53.552;9.908;2023-02-01T07:04:21;3.50;99.90
13684;DHT22;6914;53.552;9.908;2023-02-01T07:06:48;3.60;99.90
13684;DHT22;6914;53.552;9.908;2023-02-01T07:09:14;4.90;99.90
13684;DHT22;6914;53.552;9.908;2023-02-01T07:11:41;3.70;99.90
13684;DHT22;6914;53.552;9.908;2023-02-01T07:14:09;3.70;99.90
13684;DHT22;6914;53.552;9.908;2023-02-01T07:16:38;3.80;99.90
13684;DHT22;6914;53.552;9.908;2023-02-01T07:19:05;3.80;99.90
13684;DHT22;6914;53.552;9.908;2023-02-01T07:21:33;3.80;99.90
13684;DHT22;6914;53.552;9.908;2023-02-01T07:24:00;3.80;99.90
13684;DHT22;6914;53.552;9.908;2023-02-01T07:26:26;3.90;99.90
13684;DHT22;6914;53.552;9.908;2023-02-01T07:28:53;4.00;99.90
13684;DHT22;6914;53.552;9.908;2023-02-01T07:31:20;5.80;99.90
13684;DHT22;6914;53.552;9.908;2023-02-01T07:33:49;4.10;99.90
13684;DHT22;6914;53.552;9.908;2023-02-01T07:36:18;4.20;99.90
13684;DHT22;6914;53.552;9.908;2023-02-01T07:38:45;4.60;99.90
13684;DHT22;6914;53.552;9.908;2023-02-01T07:41:13;4.30;99.90
13684;DHT22;6914;53.552;9.908;2023-02-01T07:43:40;4.30;99.90
13684;DHT22;6914;53.552;9.908;2023-02-01T07:46:07;4.30;99.90
13684;DHT22;6914;53.552;9.908;2023-02-01T07:48:34;4.60;99.90
13684;DHT22;6914;53.552;9.908;2023-02-01T07:51:04;4.50;99.90
13684;DHT22;6914;53.552;9.908;2023-02-01T07:53:33;4.50;99.90
13684;DHT22;6914;53.552;9.908;2023-02-01T07:56:00;4.50;99.90
13684;DHT22;6914;53.552;9.908;2023-02-01T07:58:27;4.50;99.90
13684;DHT22;6914;53.552;9.908;2023-02-01T08:00:54;4.50;99.90
13684;DHT22;6914;53.552;9.908;2023-02-01T08:03:39;4.60;99.90
13684;DHT22;6914;53.552;9.908;2023-02-01T08:06:07;4.60;99.90
13684;DHT22;6914;53.552;9.908;2023-02-01T08:08:34;4.60;99.90
13684;DHT22;6914;53.552;9.908;2023-02-01T08:11:03;4.60;99.90
13684;DHT22;6914;53.552;9.908;2023-02-01T08:13:30;4.70;99.90
13684;DHT22;6914;53.552;9.908;2023-02-01T08:15:58;4.60;99.90
13684;DHT22;6914;53.552;9.908;2023-02-01T08:18:24;4.90;99.90
13684;DHT22;6914;53.552;9.908;2023-02-01T08:20:52;4.70;99.90
13684;DHT22;6914;53.552;9.908;2023-02-01T08:23:20;4.80;99.90
13684;DHT22;6914;53.552;9.908;2023-02-01T08:25:47;4.80;99.90
13684;DHT22;6914;53.552;9.908;2023-02-01T08:28:14;4.90;99.90
13684;DHT22;6914;53.552;9.908;2023-02-01T08:30:41;4.80;99.90
13684;DHT22;6914;53.552;9.908;2023-02-01T08:33:08;5.20;99.90
13684;DHT22;6914;53.552;9.908;2023-02-01T08:35:37;5.30;99.90
13684;DHT22;6914;53.552;9.908;2023-02-01T08:38:05;5.80;99.90
13684;DHT22;6914;53.552;9.908;2023-02-01T08:40:33;5.30;99.90
13684;DHT22;6914;53.552;9.908;2023-02-01T08:43:00;5.70;99.90
13684;DHT22;6914;53.552;9.908;2023-02-01T08:45:28;5.30;99.90
13684;DHT22;6914;53.552;9.908;2023-02-01T08:47:56;5.60;99.90
13684;DHT22;6914;53.552;9.908;2023-02-01T08:50:23;5.30;99.90
13684;DHT22;6914;53.552;9.908;2023-02-01T08:52:51;5.30;99.90
13684;DHT22;6914;53.552;9.908;2023-02-01T08:55:18;5.30;99.90
13684;DHT22;6914;53.552;9.908;2023-02-01T08:57:46;5.30;99.90
13684;DHT22;6914;53.552;9.908;2023-02-01T09:00:15;5.30;99.90
13684;DHT22;6914;53.552;9.908;2023-02-01T09:02:42;5.40;99.90
13684;DHT22;6914;53.552;9.908;2023-02-01T09:05:09;5.40;99.90
13684;DHT22;6914;53.552;9.908;2023-02-01T09:07:37;5.50;99.90
13684;DHT22;6914;53.552;9.908;2023-02-01T09:10:06;5.40;99.90
13684;DHT22;6914;53.552;9.908;2023-02-01T09:12:33;5.50;99.90
13684;DHT22;6914;53.552;9.908;2023-02-01T09:15:02;5.60;99.90
13684;DHT22;6914;53.552;9.908;2023-02-01T09:17:32;5.50;99.90
13684;DHT22;6914;53.552;9.908;2023-02-01T09:19:59;5.70;99.90
13684;DHT22;6914;53.552;9.908;2023-02-01T09:22:26;5.70;99.90
13684;DHT22;6914;53.552;9.908;2023-02-01T09:24:53;5.60;99.90
13684;DHT22;6914;53.552;9.908;2023-02-01T09:27:20;5.60;99.90
13684;DHT22;6914;53.552;9.908;2023-02-01T09:29:47;5.50;99.90
13684;DHT22;6914;53.552;9.908;2023-02-01T09:32:19;5.50;99.90
13684;DHT22;6914;53.552;9.908;2023-02-01T09:34:46;5.50;99.90
13684;DHT22;6914;53.552;9.908;2023-02-01T09:37:12;5.40;99.90
13684;DHT22;6914;53.552;9.908;2023-02-01T09:39:40;5.50;99.90
13684;DHT22;6914;53.552;9.908;2023-02-01T09:42:16;5.60;99.90
13684;DHT22;6914;53.552;9.908;2023-02-01T09:45:03;5.50;99.90
13684;DHT22;6914;53.552;9.908;2023-02-01T09:47:35;5.60;99.90
13684;DHT22;6914;53.552;9.908;2023-02-01T09:50:05;6.20;99.90
13684;DHT22;6914;53.552;9.908;2023-02-01T09:52:38;5.70;99.90
13684;DHT22;6914;53.552;9.908;2023-02-01T09:55:12;6.70;99.90
13684;DHT22;6914;53.552;9.908;2023-02-01T09:57:45;6.00;99.90
13684;DHT22;6914;53.552;9.908;2023-02-01T10:00:18;6.20;99.90
13684;DHT22;6914;53.552;9.908;2023-02-01T10:02:48;6.30;99.90
13684;DHT22;6914;53.552;9.908;2023-02-01T10:05:21;6.30;99.90
13684;DHT22;6914;53.552;9.908;2023-02-01T10:07:57;6.30;99.90
13684;DHT22;6914;53.552;9.908;2023-02-01T10:10:29;6.30;99.90
13684;DHT22;6914;53.552;9.908;2023-02-01T10:16:08;6.20;99.90
13684;DHT22;6914;53.552;9.908;2023-02-01T10:21:46;6.20;99.90
13684;DHT22;6914;53.552;9.908;2023-02-01T10:27:13;6.10;99.90
13684;DHT22;6914;53.552;9.908;2023-02-01T10:29:42;6.00;99.90
13684;DHT22;6914;53.552;9.908;2023-02-01T10:32:13;6.00;99.90
13684;DHT22;6914;53.552;9.908;2023-02-01T10:34:44;5.90;99.90
13684;DHT22;6914;53.552;9.908;2023-02-01T10:37:20;5.90;99.90
13684;DHT22;6914;53.552;9.908;2023-02-01T10:39:52;5.70;99.90
13684;DHT22;6914;53.552;9.908;2023-02-01T10:42:24;5.60;99.90
13684;DHT22;6914;53.552;9.908;2023-02-01T10:44:52;5.60;99.90
13684;DHT22;6914;53.552;9.908;2023-02-01T10:47:20;5.60;99.90
13684;DHT22;6914;53.552;9.908;2023-02-01T10:49:55;5.70;99.90
13684;DHT22;6914;53.552;9.908;2023-02-01T10:52:31;5.90;99.90
13684;DHT22;6914;53.552;9.908;2023-02-01T10:55:35;5.60;99.90
13684;DHT22;6914;53.552;9.908;2023-02-01T10:58:04;5.50;99.90
13684;DHT22;6914;53.552;9.908;2023-02-01T11:00:42;5.50;99.90
13684;DHT22;6914;53.552;9.908;2023-02-01T11:03:21;4.20;99.90
13684;DHT22;6914;53.552;9.908;2023-02-01T11:05:50;5.50;99.90
13684;DHT22;6914;53.552;9.908;2023-02-01T11:08:17;5.50;99.90
13684;DHT22;6914;53.552;9.908;2023-02-01T11:10:45;5.50;99.90
13684;DHT22;6914;53.552;9.908;2023-02-01T11:13:15;5.60;99.90
13684;DHT22;6914;53.552;9.908;2023-02-01T11:15:46;5.70;99.90
13684;DHT22;6914;53.552;9.908;2023-02-01T11:18:16;5.80;99.90
13684;DHT22;6914;53.552;9.908;2023-02-01T11:20:44;5.90;99.90
13684;DHT22;6914;53.552;9.908;2023-02-01T11:23:17;5.90;99.90
13684;DHT22;6914;53.552;9.908;2023-02-01T11:25:49;6.00;99.90
13684;DHT22;6914;53.552;9.908;2023-02-01T11:28:17;5.90;99.90
13684;DHT22;6914;53.552;9.908;2023-02-01T11:30:46;6.00;99.90
13684;DHT22;6914;53.552;9.908;2023-02-01T11:33:17;6.00;99.90
13684;DHT22;6914;53.552;9.908;2023-02-01T11:35:46;6.00;99.90
13684;DHT22;6914;53.552;9.908;2023-02-01T11:38:25;6.00;99.90
13684;DHT22;6914;53.552;9.908;2023-02-01T11:40:52;5.50;99.90
13684;DHT22;6914;53.552;9.908;2023-02-01T11:43:24;5.90;99.90
13684;DHT22;6914;53.552;9.908;2023-02-01T11:45:55;6.00;99.90
13684;DHT22;6914;53.552;9.908;2023-02-01T11:48:24;5.90;99.90
13684;DHT22;6914;53.552;9.908;2023-02-01T11:51:02;6.30;99.90
13684;DHT22;6914;53.552;9.908;2023-02-01T11:53:47;5.90;99.90
13684;DHT22;6914;53.552;9.908;2023-02-01T11:56:25;5.70;99.90
13684;DHT22;6914;53.552;9.908;2023-02-01T12:04:58;5.40;99.90
13684;DHT22;6914;53.552;9.908;2023-02-01T12:07:31;5.50;99.90
13684;DHT22;6914;53.552;9.908;2023-02-01T12:10:09;5.40;99.90
13684;DHT22;6914;53.552;9.908;2023-02-01T12:12:49;5.30;99.90
13684;DHT22;6914;53.552;9.908;2023-02-01T12:15:31;5.30;99.90
13684;DHT22;6914;53.552;9.908;2023-02-01T12:18:30;5.30;99.90
13684;DHT22;6914;53.552;9.908;2023-02-01T12:21:06;5.20;99.90
13684;DHT22;6914;53.552;9.908;2023-02-01T12:23:46;5.20;99.90
13684;DHT22;6914;53.552;9.908;2023-02-01T12:26:38;5.20;99.90
13684;DHT22;6914;53.552;9.908;2023-02-01T12:29:33;5.10;99.90
13684;DHT22;6914;53.552;9.908;2023-02-01T12:32:14;5.00;99.90
13684;DHT22;6914;53.552;9.908;2023-02-01T12:35:10;4.80;99.90
13684;DHT22;6914;53.552;9.908;2023-02-01T12:37:51;4.90;99.90
13684;DHT22;6914;53.552;9.908;2023-02-01T12:40:34;4.70;99.90
13684;DHT22;6914;53.552;9.908;2023-02-01T12:43:10;4.60;99.90
13684;DHT22;6914;53.552;9.908;2023-02-01T12:45:43;4.50;99.90
13684;DHT22;6914;53.552;9.908;2023-02-01T12:48:22;4.40;99.90
13684;DHT22;6914;53.552;9.908;2023-02-01T12:50:53;4.60;99.90
13684;DHT22;6914;53.552;9.908;2023-02-01T12:53:25;4.20;99.90
13684;DHT22;6914;53.552;9.908;2023-02-01T12:55:55;4.20;99.90
13684;DHT22;6914;53.552;9.908;2023-02-01T12:58:27;4.10;99.90
13684;DHT22;6914;53.552;9.908;2023-02-01T13:01:00;3.70;99.90
13684;DHT22;6914;53.552;9.908;2023-02-01T13:03:35;4.00;99.90
13684;DHT22;6914;53.552;9.908;2023-02-01T13:06:07;4.10;99.90
13684;DHT22;6914;53.552;9.908;2023-02-01T13:08:42;4.00;99.90
13684;DHT22;6914;53.552;9.908;2023-02-01T13:11:13;4.20;99.90
13684;DHT22;6914;53.552;9.908;2023-02-01T13:13:52;4.00;99.90
13684;DHT22;6914;53.552;9.908;2023-02-01T13:16:26;4.00;99.90
13684;DHT22;6914;53.552;9.908;2023-02-01T13:19:00;4.10;99.90
13684;DHT22;6914;53.552;9.908;2023-02-01T13:21:32;4.30;99.90
13684;DHT22;6914;53.552;9.908;2023-02-01T13:24:00;4.40;99.90
13684;DHT22;6914;53.552;9.908;2023-02-01T13:26:28;4.10;99.90
13684;DHT22;6914;53.552;9.908;2023-02-01T13:28:59;5.70;99.90
13684;DHT22;6914;53.552;9.908;2023-02-01T13:31:56;4.90;99.90
13684;DHT22;6914;53.552;9.908;2023-02-01T13:34:49;5.50;99.90
13684;DHT22;6914;53.552;9.908;2023-02-01T13:37:31;4.70;99.90
13684;DHT22;6914;53.552;9.908;2023-02-01T13:40:16;4.70;99.90
13684;DHT22;6914;53.552;9.908;2023-02-01T13:42:48;5.50;99.90
13684;DHT22;6914;53.552;9.908;2023-02-01T13:45:19;4.60;99.90
13684;DHT22;6914;53.552;9.908;2023-02-01T13:47:49;4.60;99.90
13684;DHT22;6914;53.552;9.908;2023-02-01T13:50:22;4.60;99.90
13684;DHT22;6914;53.552;9.908;2023-02-01T13:52:55;6.50;99.90
13684;DHT22;6914;53.552;9.908;2023-02-01T13:55:31;4.50;99.90
13684;DHT22;6914;53.552;9.908;2023-02-01T13:58:05;4.60;99.90
13684;DHT22;6914;53.552;9.908;2023-02-01T14:00:35;4.60;99.90
13684;DHT22;6914;53.552;9.908;2023-02-01T14:03:15;4.60;99.90
13684;DHT22;6914;53.552;9.908;2023-02-01T14:06:01;4.80;99.90
13684;DHT22;6914;53.552;9.908;2023-02-01T14:08:43;5.70;99.90
13684;DHT22;6914;53.552;9.908;2023-02-01T14:11:33;4.90;99.90
13684;DHT22;6914;53.552;9.908;2023-02-01T14:26:16;5.40;99.90
13684;DHT22;6914;53.552;9.908;2023-02-01T14:28:50;5.30;99.90
13684;DHT22;6914;53.552;9.908;2023-02-01T14:31:58;5.20;99.90
13684;DHT22;6914;53.552;9.908;2023-02-01T14:34:34;5.30;99.90
13684;DHT22;6914;53.552;9.908;2023-02-01T14:37:03;4.90;99.90
13684;DHT22;6914;53.552;9.908;2023-02-01T14:39:37;5.00;99.90
13684;DHT22;6914;53.552;9.908;2023-02-01T14:42:19;4.80;99.90
13684;DHT22;6914;53.552;9.908;2023-02-01T14:44:47;4.50;99.90
13684;DHT22;6914;53.552;9.908;2023-02-01T14:47:33;4.30;99.90
13684;DHT22;6914;53.552;9.908;2023-02-01T14:50:07;4.30;99.90
13684;DHT22;6914;53.552;9.908;2023-02-01T14:52:39;4.20;99.90
13684;DHT22;6914;53.552;9.908;2023-02-01T14:55:13;4.20;99.90
13684;DHT22;6914;53.552;9.908;2023-02-01T14:57:42;4.20;99.90
13684;DHT22;6914;53.552;9.908;2023-02-01T15:00:24;4.20;99.90
13684;DHT22;6914;53.552;9.908;2023-02-01T15:02:53;4.20;99.90
13684;DHT22;6914;53.552;9.908;2023-02-01T15:05:29;4.20;99.90
13684;DHT22;6914;53.552;9.908;2023-02-01T15:08:00;4.30;99.90
13684;DHT22;6914;53.552;9.908;2023-02-01T15:10:33;3.40;99.90
13684;DHT22;6914;53.552;9.908;2023-02-01T15:13:08;3.50;99.90
13684;DHT22;6914;53.552;9.908;2023-02-01T15:15:39;4.50;99.90
13684;DHT22;6914;53.552;9.908;2023-02-01T15:18:16;4.30;99.90
13684;DHT22;6914;53.552;9.908;2023-02-01T15:20:56;5.10;99.90
13684;DHT22;6914;53.552;9.908;2023-02-01T15:23:23;4.20;99.90
13684;DHT22;6914;53.552;9.908;2023-02-01T15:25:51;4.10;99.90
13684;DHT22;6914;53.552;9.908;2023-02-01T15:28:18;4.50;99.90
13684;DHT22;6914;53.552;9.908;2023-02-01T15:30:54;4.00;99.90
13684;DHT22;6914;53.552;9.908;2023-02-01T15:33:21;4.00;99.90
13684;DHT22;6914;53.552;9.908;2023-02-01T15:35:50;3.90;99.90
13684;DHT22;6914;53.552;9.908;2023-02-01T15:38:36;3.90;99.90
13684;DHT22;6914;53.552;9.908;2023-02-01T15:41:07;3.90;99.90
13684;DHT22;6914;53.552;9.908;2023-02-01T15:43:37;3.60;99.90
13684;DHT22;6914;53.552;9.908;2023-02-01T15:46:10;3.90;99.90
13684;DHT22;6914;53.552;9.908;2023-02-01T15:48:41;3.90;99.90
13684;DHT22;6914;53.552;9.908;2023-02-01T15:51:16;5.00;99.90
13684;DHT22;6914;53.552;9.908;2023-02-01T15:53:52;4.10;99.90
13684;DHT22;6914;53.552;9.908;2023-02-01T15:56:24;4.30;99.90
13684;DHT22;6914;53.552;9.908;2023-02-01T15:58:56;3.60;99.90
13684;DHT22;6914;53.552;9.908;2023-02-01T16:01:24;3.90;99.90
13684;DHT22;6914;53.552;9.908;2023-02-01T16:04:02;4.10;99.90
13684;DHT22;6914;53.552;9.908;2023-02-01T16:06:30;4.10;99.90
13684;DHT22;6914;53.552;9.908;2023-02-01T16:09:02;4.10;99.90
13684;DHT22;6914;53.552;9.908;2023-02-01T16:11:32;4.00;99.90
13684;DHT22;6914;53.552;9.908;2023-02-01T16:14:06;4.00;99.90
13684;DHT22;6914;53.552;9.908;2023-02-01T16:16:33;3.40;99.90
13684;DHT22;6914;53.552;9.908;2023-02-01T16:19:00;4.10;99.90
13684;DHT22;6914;53.552;9.908;2023-02-01T16:21:27;4.10;99.90
13684;DHT22;6914;53.552;9.908;2023-02-01T16:23:53;4.20;99.90
13684;DHT22;6914;53.552;9.908;2023-02-01T16:26:20;4.20;99.90
13684;DHT22;6914;53.552;9.908;2023-02-01T16:28:49;4.10;99.90
13684;DHT22;6914;53.552;9.908;2023-02-01T16:31:17;4.10;99.90
13684;DHT22;6914;53.552;9.908;2023-02-01T16:33:49;4.20;99.90
13684;DHT22;6914;53.552;9.908;2023-02-01T16:36:17;4.20;99.90
13684;DHT22;6914;53.552;9.908;2023-02-01T16:38:44;4.30;99.90
13684;DHT22;6914;53.552;9.908;2023-02-01T16:41:13;4.20;99.90
13684;DHT22;6914;53.552;9.908;2023-02-01T16:43:43;4.20;99.90
13684;DHT22;6914;53.552;9.908;2023-02-01T16:46:15;4.30;99.90
13684;DHT22;6914;53.552;9.908;2023-02-01T16:48:44;4.40;99.90
13684;DHT22;6914;53.552;9.908;2023-02-01T16:51:14;4.20;99.90
13684;DHT22;6914;53.552;9.908;2023-02-01T16:53:43;4.30;99.90
13684;DHT22;6914;53.552;9.908;2023-02-01T16:56:13;4.50;99.90
13684;DHT22;6914;53.552;9.908;2023-02-01T16:58:41;4.50;99.90
13684;DHT22;6914;53.552;9.908;2023-02-01T17:01:09;4.50;99.90